King Hill, Idaho
Current Conditions -  °F | °C
As of 12:58 AM on Monday 22 Dec 2014 (Local Time) from KMUO Reporting Station
Light Rain Light Rain  
Wind Chill: 36°   Ceiling: 1600
Heat Index: 40°   Visibility: 9mi
Dew Point: 38°   Wind: 5mph
Humidity: 96%   Direction: 200°SSW
Pressure: 30.09"   Gusts: NA
Location:  43°N, 115.21°W
Report Text: KMUO 220758Z AUTO 20004KT 9SM -RA OVC016 04/04 A3009 RMK AO2 RAB04E16RAB39 SLP198 P0001 T00420036
Loading
Personal Weather Stations






























Interactive Weather Map New forecast layout! Learn more

10-Day Weather Forecast

Advertisements
Track Severe Weather on mobile